Tangaroa — ZMFR — position and weather

sailwx.info

Track history (hours):
 
Tides and Currents Weather Stations Pressure Air Temp Water Temp Dewpoint Dewpoint Depression Visibility Wind Speed Wind Dir Waves Ship Positions

Oceanographic research ship Tangaroa (New Zealand)

Detailed information on ship capabilities available from University of Delaware's Ocean Information Center.

Last reported at 2020-Aug-07 08:00 UTC. Time now 2020-Aug-07 09:47 UTC.
Position S 41°30' E 174°54'.

Length 70 m; beam 13.8 m.

Type: Ship. MMSI: 512000058.

Wind from 350 at 20 knots

Barometer 999.8 mb
Air temperature 11.9 ° C
Dewpoint 8.2 ° C

Date/timePositionNaut miles runAvg speedWind from/ knotsBaromVisibWave heightAir tempDewpointWater temp
2020-Aug-07 08:00S 41°30' E 174°54'7 7.5 350 / 20999.8 11.9 8.2
2020-Aug-07 07:00S 41°24' E 174°48'713.8 010 / 131000.1 11.8 8.2
2020-Aug-07 06:31S 41°18' E 174°51'2 4.4
2020-Aug-07 06:00S 41°18' E 174°48'0 0.0 1000.3 11.7 8.2
2020-Aug-07 05:00S 41°18' E 174°48'0 0.0 1000.1 12.2 7.8
2020-Aug-07 04:00S 41°18' E 174°48'1 1.6 1000.3 13.5 7.6
2020-Aug-07 03:27S 41°19' E 174°49'1 1.9
2020-Aug-07 03:00S 41°18' E 174°48'0 0.0 1000.8 13.5 7.8
2020-Aug-07 02:00S 41°18' E 174°48'0 0.0 1001.4 13.7 7.0
2020-Aug-07 01:00S 41°18' E 174°48'0 0.0 1002.4 13.5 7.2
2020-Aug-07 00:00S 41°18' E 174°48'1 1.6 1002.9 13.3 8.1
2020-Aug-06 23:27S 41°19' E 174°49'1 1.9
2020-Aug-06 23:00S 41°18' E 174°48'0 0.0 1003.7 13.4 8.6
2020-Aug-06 22:00S 41°18' E 174°48'0 0.0 1004.2 12.210.2
2020-Aug-06 21:00S 41°18' E 174°48'0 0.0 1004.7 11.810.4
2020-Aug-06 20:00S 41°18' E 174°48'0 0.0 1005.0 11.710.5
2020-Aug-06 19:00S 41°18' E 174°48'0 0.0 1005.5 12.010.2
2020-Aug-06 18:00S 41°18' E 174°48'0 0.0 1006.1 12.2 9.5
2020-Aug-06 17:00S 41°18' E 174°48'0 0.0 1006.1 12.5 9.8
2020-Aug-06 16:00S 41°18' E 174°48'0 0.0 1006.8 12.7 9.5
2020-Aug-06 15:00S 41°18' E 174°48'0 0.0 1007.8 12.910.0
2020-Aug-06 14:00S 41°18' E 174°48'0 0.0 1007.9 13.410.1
2020-Aug-06 13:00S 41°18' E 174°48'0 0.0 1008.4 13.5 9.1
2020-Aug-06 12:00S 41°18' E 174°48'0 0.0 1009.4 14.0 8.4
2020-Aug-06 11:00S 41°18' E 174°48'0 0.0 1010.2 14.1 8.4
2020-Aug-06 10:00S 41°18' E 174°48'0 0.0 1010.9 13.8 8.8
2020-Aug-06 09:00S 41°18' E 174°48'0 0.0 1011.2 13.5 9.1
2020-Aug-06 08:00S 41°18' E 174°48'0 0.0 1012.0 13.5 9.9
2020-Aug-06 07:00S 41°18' E 174°48'0 0.0 1012.6 13.510.3
2020-Aug-06 06:00S 41°18' E 174°48'1 0.9 1013.3 13.010.1
2020-Aug-06 05:03S 41°19' E 174°49'117.6
2020-Aug-06 05:00S 41°18' E 174°48'1 1.2 1013.8 13.2 9.3
2020-Aug-06 04:14S 41°19' E 174°49'0 0.0
2020-Aug-06 03:50S 41°19' E 174°49'0 0.0
2020-Aug-06 01:56S 41°19' E 174°49'0 0.0
2020-Aug-06 01:20S 41°19' E 174°49'2 0.7
2020-Aug-05 22:30S 41°18' E 174°51'11 4.4
2020-Aug-05 20:00S 41°29' E 174°48'2 3.1
2020-Aug-05 19:30S 41°30' E 174°50'11 5.4
2020-Aug-05 17:30S 41°36' E 174°38'2 0.7
2020-Aug-05 14:00S 41°34' E 174°36'1 1.0
2020-Aug-05 13:01S 41°33' E 174°35'0 0.8
2020-Aug-05 12:30S 41°33' E 174°35'2 0.8
2020-Aug-05 09:30S 41°31' E 174°34'2 0.8
2020-Aug-05 06:30S 41°31' E 174°37'6 3.1
2020-Aug-05 04:30S 41°36' E 174°42'3 0.8
2020-Aug-05 00:31S 41°38' E 174°46'6 3.1
2020-Aug-04 22:31S 41°31' E 174°47'1510.0
2020-Aug-04 21:01S 41°17' E 174°49'1 0.9
2020-Aug-04 20:00S 41°17' E 174°49'19 6.3
2020-Aug-04 17:00S 41°36' E 174°49'14 2.3
2020-Aug-04 11:01S 41°30' E 174°32'1 0.5
2020-Aug-04 09:30S 41°30' E 174°33'1 1.2
2020-Aug-04 09:00S 41°30' E 174°33'0 0.3
2020-Aug-04 08:30S 41°30' E 174°33'1 0.3
2020-Aug-04 05:00S 41°31' E 174°34'2 2.2
2020-Aug-04 04:00S 41°31' E 174°31'3 2.6
2020-Aug-04 03:01S 41°32' E 174°35'5 1.1
2020-Aug-03 22:30S 41°35' E 174°40'3 0.6
2020-Aug-03 17:30S 41°34' E 174°36'1 1.3
2020-Aug-03 16:30S 41°33' E 174°35'2 1.9
2020-Aug-03 15:30S 41°31' E 174°34'1 0.3
2020-Aug-03 13:00S 41°32' E 174°34'3 1.6
2020-Aug-03 11:00S 41°30' E 174°31'1 1.4
2020-Aug-03 10:01S 41°28' E 174°31'2 4.9
2020-Aug-03 09:30S 41°30' E 174°33'0 0.8
2020-Aug-03 09:00S 41°30' E 174°33'2 1.1
2020-Aug-03 07:00S 41°32' E 174°34'9 5.9
2020-Aug-03 05:30S 41°37' E 174°44'3 2.5
2020-Aug-03 04:30S 41°36' E 174°47'6 6.5
2020-Aug-03 03:30S 41°36' E 174°38'3 0.7
2020-Aug-03 00:00S 41°35' E 174°36'1 0.2
2020-Aug-02 17:31S 41°33' E 174°35'1 0.7
2020-Aug-02 16:30S 41°33' E 174°34'1 0.4
2020-Aug-02 13:30S 41°33' E 174°33'1 1.6
2020-Aug-02 13:00S 41°33' E 174°34'0 0.7
2020-Aug-02 12:30S 41°33' E 174°35'2 1.1
2020-Aug-02 10:30S 41°31' E 174°34'1 1.6
2020-Aug-02 10:00S 41°30' E 174°33'5 1.4
2020-Aug-02 06:30S 41°32' E 174°39'3 2.1
2020-Aug-02 05:00S 41°33' E 174°35'2 3.8
2020-Aug-02 04:30S 41°31' E 174°35'1 2.4
2020-Aug-02 04:00S 41°30' E 174°34'1 0.7
2020-Aug-02 03:00S 41°29' E 174°33'1 1.0
2020-Aug-02 02:00S 41°30' E 174°34'2115.0
2020-Aug-02 02:00S 41°30' E 174°36'3 2.8 1024.9 13.7 7.3
2020-Aug-02 01:00S 41°33' E 174°37'3208.3
2020-Aug-02 01:00S 41°36' E 174°36'0 0.0 1025.3 13.8 9.0
2020-Aug-02 00:00S 41°36' E 174°36'6 6.0 1026.4 13.110.2
2020-Aug-01 23:00S 41°30' E 174°36'2 3.6 1027.0 13.5 9.6
2020-Aug-01 22:30S 41°31' E 174°34'2 3.3
2020-Aug-01 22:00S 41°30' E 174°36'0 0.0 1027.2 13.2 9.5
2020-Aug-01 21:00S 41°30' E 174°36'0 0.0 1027.3 12.910.0
2020-Aug-01 20:00S 41°30' E 174°36'0 0.0 1026.9 12.610.3
2020-Aug-01 19:00S 41°30' E 174°36'0 0.0 1026.5 12.7 9.7
2020-Aug-01 18:00S 41°30' E 174°36'6 6.0 1026.2 12.6 9.8
2020-Aug-01 17:00S 41°36' E 174°36'3 3.5 350 / 101026.2 12.5 9.5
2020-Aug-01 16:00S 41°33' E 174°34'3211.8
2020-Aug-01 16:00S 41°36' E 174°36'6 6.0 350 / 121026.1 12.7 9.3
2020-Aug-01 15:00S 41°30' E 174°36'6 6.0 360 / 81026.8 12.5 8.1
2020-Aug-01 14:00S 41°30' E 174°28'192.9
2020-Aug-01 14:00S 41°30' E 174°30'0 0.0 360 / 131027.0 12.8 8.4
2020-Aug-01 13:00S 41°30' E 174°30'4 4.5 360 / 151026.9 13.0 7.0
2020-Aug-01 12:00S 41°30' E 174°36'2 4.2 1027.4 12.5 5.8
2020-Aug-01 11:30S 41°32' E 174°35'4 2.8
2020-Aug-01 10:00S 41°36' E 174°36'3 5.7 010 / 131027.3 12.8 8.3
2020-Aug-01 09:31S 41°38' E 174°39'816.3
2020-Aug-01 09:00S 41°30' E 174°42'6 6.0 020 / 121027.5 12.5 9.0
2020-Aug-01 08:00S 41°36' E 174°42'7 7.5 040 / 111027.4 12.4 8.0
2020-Aug-01 07:00S 41°42' E 174°48'4 4.5 030 / 151026.6 12.5 8.2
2020-Aug-01 06:00S 41°42' E 174°54'4 8.1 030 / 181026.3 12.3 7.5
2020-Aug-01 05:30S 41°38' E 174°55'2 4.4
2020-Aug-01 05:00S 41°36' E 174°54'1312.8 050 / 111026.2 12.5 6.5
2020-Aug-01 04:00S 41°24' E 174°48'8 8.5 1026.3 12.9 6.5
2020-Aug-01 03:00S 41°16' E 174°48'2144.8
2020-Aug-01 03:00S 41°18' E 174°48'2 4.6 1026.1 12.9 5.1
2020-Aug-01 02:30S 41°16' E 174°48'2 4.4
2020-Aug-01 02:00S 41°18' E 174°48'0 0.0 1026.5 13.5 4.2
2020-Aug-01 01:00S 41°18' E 174°48'2 4.3 1027.3 13.7 4.1
2020-Aug-01 00:30S 41°16' E 174°47'0 0.0
2020-Aug-01 00:00S 41°16' E 174°47'2333.3
2020-Aug-01 00:00S 41°18' E 174°48'0 0.0 1028.2 13.1 5.2
2020-Jul-31 23:00S 41°18' E 174°48'0 0.0 1028.7 12.6 6.1
2020-Jul-31 22:00S 41°18' E 174°48'2 4.3 1028.5 12.2 6.0
2020-Jul-31 21:30S 41°16' E 174°47'2 4.2
2020-Jul-31 21:00S 41°18' E 174°48'0 0.0 1028.5 11.2 6.3
2020-Jul-31 20:00S 41°18' E 174°48'0 0.0 1028.5 10.5 6.9
2020-Jul-31 19:00S 41°18' E 174°48'2 2.1 1028.1 10.1 6.9
2020-Jul-31 18:00S 41°16' E 174°47'2383.3
2020-Jul-31 18:00S 41°18' E 174°48'0 0.0 1027.4 10.8 6.2
2020-Jul-31 17:00S 41°18' E 174°48'0 0.0 1027.4 11.0 6.1
2020-Jul-31 16:00S 41°18' E 174°48'2 4.3 1027.5 11.3 5.8
2020-Jul-31 15:30S 41°16' E 174°47'2 4.2
2020-Jul-31 15:00S 41°18' E 174°48'0 0.0 1027.5 11.5 6.0
2020-Jul-31 14:00S 41°18' E 174°48'0 0.0 1027.5 11.1 5.9
2020-Jul-31 13:00S 41°18' E 174°48'0 0.0 1027.5 9.8 6.5
2020-Jul-31 12:00S 41°18' E 174°48'247.0 1027.5 10.3 6.4
2020-Jul-31 11:57S 41°16' E 174°47'2 2.2
2020-Jul-31 11:00S 41°18' E 174°48'2 2.1 1027.4 10.7 6.2
2020-Jul-31 10:00S 41°16' E 174°47'2479.2
2020-Jul-31 10:00S 41°18' E 174°48'0 0.0 1027.7 10.4 6.2
2020-Jul-31 09:00S 41°18' E 174°48'0 0.0 1027.3 11.5 6.2
2020-Jul-31 08:00S 41°18' E 174°48'0 0.0 1027.0 12.0 6.7
2020-Jul-31 07:00S 41°18' E 174°48'0 0.0 1026.8 12.2 6.3
2020-Jul-31 06:00S 41°18' E 174°48'214.5 1026.3 13.1 5.9
2020-Jul-31 05:51S 41°16' E 174°47'0 0.0
2020-Jul-31 05:00S 41°16' E 174°47'2589.8
2020-Jul-31 05:00S 41°18' E 174°48'2 2.1 1025.6 13.6 4.9
2020-Jul-31 04:00S 41°16' E 174°47'2589.8
2020-Jul-31 04:00S 41°18' E 174°48'0 0.0 1025.3 14.0 4.6
2020-Jul-31 03:00S 41°18' E 174°48'0 0.0 1025.6 14.4 4.1
2020-Jul-31 02:00S 41°18' E 174°48'2 2.1 1025.9 14.6 5.0
2020-Jul-31 01:00S 41°16' E 174°47'2697.0
2020-Jul-31 01:00S 41°18' E 174°48'2 4.3 1026.6 14.0 5.0
2020-Jul-31 00:30S 41°16' E 174°47'2 4.2
2020-Jul-31 00:00S 41°18' E 174°48'0 0.0 1026.9 14.7 5.1
2020-Jul-30 23:00S 41°18' E 174°48'2 4.3 1027.5 13.6 5.5
2020-Jul-30 22:30S 41°16' E 174°47'2 4.2
2020-Jul-30 22:00S 41°18' E 174°48'2 4.3 1027.0 13.1 5.3
2020-Jul-30 21:30S 41°16' E 174°47'2 4.2
2020-Jul-30 21:00S 41°18' E 174°48'2 4.3 1027.2 12.7 5.3
2020-Jul-30 20:30S 41°16' E 174°47'0 0.0
2020-Jul-30 19:30S 41°16' E 174°47'0 0.0
2020-Jul-30 13:30S 41°16' E 174°47'0 0.0
2020-Jul-30 10:30S 41°16' E 174°47'0 0.0
2020-Jul-30 09:00S 41°16' E 174°47'0 0.0
2020-Jul-30 08:24S 41°16' E 174°47'0 0.0
2020-Jul-30 05:57S 41°16' E 174°47'0 0.0
2020-Jul-30 03:51S 41°16' E 174°47'2 0.7
2020-Jul-30 01:00S 41°18' E 174°48'0 0.0 1029.3 13.5 7.4
2020-Jul-30 00:00S 41°18' E 174°48'0 0.0 1030.5 13.7 8.5
2020-Jul-29 23:00S 41°18' E 174°48'0 0.0 1031.7 12.6 8.3
2020-Jul-29 22:00S 41°18' E 174°48'0 0.0 1032.1 11.7 7.6
2020-Jul-29 21:00S 41°18' E 174°48'21916.7 1032.2 10.5 7.4
2020-Jul-29 20:59S 41°16' E 174°47'0 0.0
2020-Jul-29 20:29S 41°16' E 174°47'2 4.3
2020-Jul-29 20:00S 41°18' E 174°48'2 4.0 1032.1 9.8 7.1
2020-Jul-29 19:30S 41°16' E 174°48'5 9.0
2020-Jul-29 19:00S 41°18' E 174°54'8 7.5 020 / 141031.4 9.0 6.6
2020-Jul-29 18:00S 41°24' E 174°48'6 5.7 1030.6 10.9 8.1
2020-Jul-29 17:00S 41°29' E 174°51'2158.9
2020-Jul-29 17:00S 41°30' E 174°54'1 2.2 360 / 171030.8 11.4 7.7
2020-Jul-29 16:30S 41°31' E 174°55'5 9.8
2020-Jul-29 16:00S 41°36' E 174°54'2 5.1 020 / 141031.4 11.0 9.1
2020-Jul-29 15:30S 41°37' E 174°57'610.8
2020-Jul-29 15:00S 41°42' E 175°00'4 9.1 010 / 171031.8 11.6 9.0
2020-Jul-29 14:30S 41°43' E 174°54'713.1
2020-Jul-29 14:00S 41°48' E 175°00'4 4.5 360 / 181032.4 11.6 9.2
2020-Jul-29 13:00S 41°48' E 175°06'1110.8 350 / 171032.4 12.2 8.9
2020-Jul-29 12:00S 41°42' E 175°18'1110.8 040 / 71033.1 11.1 8.6
2020-Jul-29 11:00S 41°36' E 175°30'1110.8 020 / 141033.4 11.4 9.0
2020-Jul-29 10:00S 41°30' E 175°42'1110.8 030 / 131034.2 10.8 8.9
2020-Jul-29 09:00S 41°24' E 175°54'8 7.5 030 / 151035.0 11.2 9.4
2020-Jul-29 08:00S 41°18' E 176°00'1515.0 010 / 121035.5 11.7 9.1
2020-Jul-29 07:00S 41°06' E 176°12'8 7.5 010 / 61035.8 11.6 8.7
2020-Jul-29 06:00S 41°00' E 176°18'1515.0 1035.5 11.8 8.8
2020-Jul-29 05:00S 40°48' E 176°30'8 7.5 100 / 71035.3 12.0 9.2
2020-Jul-29 04:00S 40°42' E 176°36'1110.9 110 / 91035.1 12.5 9.9
2020-Jul-29 03:00S 40°36' E 176°48'1312.8 110 / 91034.9 13.2 9.5
2020-Jul-29 02:00S 40°24' E 176°54'1110.9 1035.2 13.3 8.8
2020-Jul-29 01:00S 40°18' E 177°06'1312.8 1035.5 14.1 8.3
2020-Jul-29 00:00S 40°06' E 177°12'8 7.6 220 / 71036.7 13.9 8.5
2020-Jul-28 23:00S 40°00' E 177°18'1515.1 1037.6 13.6 9.5
2020-Jul-28 22:00S 39°48' E 177°30'8 7.6 300 / 71037.7 13.1 8.3
2020-Jul-28 21:00S 39°42' E 177°36'1515.1 290 / 71037.3 12.8 8.9
2020-Jul-28 20:00S 39°30' E 177°48'8 7.6 300 / 121037.3 12.4 7.8
2020-Jul-28 19:00S 39°24' E 177°54'1515.2 310 / 101037.0 12.5 6.1
2020-Jul-28 18:00S 39°12' E 178°06'8 7.6 1036.8 12.5 7.4
2020-Jul-28 17:00S 39°06' E 178°12'1312.9 1036.9 12.4 7.2
2020-Jul-28 16:00S 38°54' E 178°18'1312.9 300 / 111037.3 11.7 7.3
2020-Jul-28 15:00S 38°42' E 178°24'1111.1 300 / 81037.5 12.5 5.4
2020-Jul-28 14:00S 38°36' E 178°36'6 6.0 320 / 91037.8 12.9 6.7
2020-Jul-28 13:00S 38°30' E 178°36'1212.0 1037.8 12.6 7.6
2020-Jul-28 12:00S 38°18' E 178°36'1212.0 270 / 71037.8 12.8 7.8
2020-Jul-28 11:00S 38°06' E 178°36'1212.0 1038.2 13.3 5.9
2020-Jul-28 10:00S 37°54' E 178°36'1212.0 1037.3 13.2 5.3
2020-Jul-28 09:00S 37°42' E 178°36'8 7.7 090 / 91037.2 13.3 5.3
2020-Jul-28 08:00S 37°36' E 178°30'   100 / 111036.5 13.4 6.2
Track history (hours):
 
Tides and Currents Weather Stations Pressure Air Temp Water Temp Dewpoint Dewpoint Depression Visibility Wind Speed Wind Dir Waves Ship Positions

Oceanographic research ship Tangaroa (New Zealand)

Detailed information on ship capabilities available from University of Delaware's Ocean Information Center.

Last reported at 2020-Aug-07 08:00 UTC. Time now 2020-Aug-07 09:47 UTC.
Position S 41°30' E 174°54'.

Length 70 m; beam 13.8 m.

Type: Ship. MMSI: 512000058.

Wind from 350 at 20 knots

Barometer 999.8 mb
Air temperature 11.9 ° C
Dewpoint 8.2 ° C

Date/timePositionNaut miles runAvg speedWind from/ knotsBaromVisibWave heightAir tempDewpointWater temp
2020-Aug-07 08:00S 41°30' E 174°54'7 7.5 350 / 20999.8 11.9 8.2
2020-Aug-07 07:00S 41°24' E 174°48'713.8 010 / 131000.1 11.8 8.2
2020-Aug-07 06:31S 41°18' E 174°51'2 4.4
2020-Aug-07 06:00S 41°18' E 174°48'0 0.0 1000.3 11.7 8.2
2020-Aug-07 05:00S 41°18' E 174°48'0 0.0 1000.1 12.2 7.8
2020-Aug-07 04:00S 41°18' E 174°48'1 1.6 1000.3 13.5 7.6
2020-Aug-07 03:27S 41°19' E 174°49'1 1.9
2020-Aug-07 03:00S 41°18' E 174°48'0 0.0 1000.8 13.5 7.8
2020-Aug-07 02:00S 41°18' E 174°48'0 0.0 1001.4 13.7 7.0
2020-Aug-07 01:00S 41°18' E 174°48'0 0.0 1002.4 13.5 7.2
2020-Aug-07 00:00S 41°18' E 174°48'1 1.6 1002.9 13.3 8.1
2020-Aug-06 23:27S 41°19' E 174°49'1 1.9
2020-Aug-06 23:00S 41°18' E 174°48'0 0.0 1003.7 13.4 8.6
2020-Aug-06 22:00S 41°18' E 174°48'0 0.0 1004.2 12.210.2
2020-Aug-06 21:00S 41°18' E 174°48'0 0.0 1004.7 11.810.4
2020-Aug-06 20:00S 41°18' E 174°48'0 0.0 1005.0 11.710.5
2020-Aug-06 19:00S 41°18' E 174°48'0 0.0 1005.5 12.010.2
2020-Aug-06 18:00S 41°18' E 174°48'0 0.0 1006.1 12.2 9.5
2020-Aug-06 17:00S 41°18' E 174°48'0 0.0 1006.1 12.5 9.8
2020-Aug-06 16:00S 41°18' E 174°48'0 0.0 1006.8 12.7 9.5
2020-Aug-06 15:00S 41°18' E 174°48'0 0.0 1007.8 12.910.0
2020-Aug-06 14:00S 41°18' E 174°48'0 0.0 1007.9 13.410.1
2020-Aug-06 13:00S 41°18' E 174°48'0 0.0 1008.4 13.5 9.1
2020-Aug-06 12:00S 41°18' E 174°48'0 0.0 1009.4 14.0 8.4
2020-Aug-06 11:00S 41°18' E 174°48'0 0.0 1010.2 14.1 8.4
2020-Aug-06 10:00S 41°18' E 174°48'0 0.0 1010.9 13.8 8.8
2020-Aug-06 09:00S 41°18' E 174°48'0 0.0 1011.2 13.5 9.1
2020-Aug-06 08:00S 41°18' E 174°48'0 0.0 1012.0 13.5 9.9
2020-Aug-06 07:00S 41°18' E 174°48'0 0.0 1012.6 13.510.3
2020-Aug-06 06:00S 41°18' E 174°48'1 0.9 1013.3 13.010.1
2020-Aug-06 05:03S 41°19' E 174°49'117.6
2020-Aug-06 05:00S 41°18' E 174°48'1 1.2 1013.8 13.2 9.3
2020-Aug-06 04:14S 41°19' E 174°49'0 0.0
2020-Aug-06 03:50S 41°19' E 174°49'0 0.0
2020-Aug-06 01:56S 41°19' E 174°49'0 0.0
2020-Aug-06 01:20S 41°19' E 174°49'2 0.7
2020-Aug-05 22:30S 41°18' E 174°51'11 4.4
2020-Aug-05 20:00S 41°29' E 174°48'2 3.1
2020-Aug-05 19:30S 41°30' E 174°50'11 5.4
2020-Aug-05 17:30S 41°36' E 174°38'2 0.7
2020-Aug-05 14:00S 41°34' E 174°36'1 1.0
2020-Aug-05 13:01S 41°33' E 174°35'0 0.8
2020-Aug-05 12:30S 41°33' E 174°35'2 0.8
2020-Aug-05 09:30S 41°31' E 174°34'2 0.8
2020-Aug-05 06:30S 41°31' E 174°37'6 3.1
2020-Aug-05 04:30S 41°36' E 174°42'3 0.8
2020-Aug-05 00:31S 41°38' E 174°46'6 3.1
2020-Aug-04 22:31S 41°31' E 174°47'1510.0
2020-Aug-04 21:01S 41°17' E 174°49'1 0.9
2020-Aug-04 20:00S 41°17' E 174°49'19 6.3
2020-Aug-04 17:00S 41°36' E 174°49'14 2.3
2020-Aug-04 11:01S 41°30' E 174°32'1 0.5
2020-Aug-04 09:30S 41°30' E 174°33'1 1.2
2020-Aug-04 09:00S 41°30' E 174°33'0 0.3
2020-Aug-04 08:30S 41°30' E 174°33'1 0.3
2020-Aug-04 05:00S 41°31' E 174°34'2 2.2
2020-Aug-04 04:00S 41°31' E 174°31'3 2.6
2020-Aug-04 03:01S 41°32' E 174°35'5 1.1
2020-Aug-03 22:30S 41°35' E 174°40'3 0.6
2020-Aug-03 17:30S 41°34' E 174°36'1 1.3
2020-Aug-03 16:30S 41°33' E 174°35'2 1.9
2020-Aug-03 15:30S 41°31' E 174°34'1 0.3
2020-Aug-03 13:00S 41°32' E 174°34'3 1.6
2020-Aug-03 11:00S 41°30' E 174°31'1 1.4
2020-Aug-03 10:01S 41°28' E 174°31'2 4.9
2020-Aug-03 09:30S 41°30' E 174°33'0 0.8
2020-Aug-03 09:00S 41°30' E 174°33'2 1.1
2020-Aug-03 07:00S 41°32' E 174°34'9 5.9
2020-Aug-03 05:30S 41°37' E 174°44'3 2.5
2020-Aug-03 04:30S 41°36' E 174°47'6 6.5
2020-Aug-03 03:30S 41°36' E 174°38'3 0.7
2020-Aug-03 00:00S 41°35' E 174°36'1 0.2
2020-Aug-02 17:31S 41°33' E 174°35'1 0.7
2020-Aug-02 16:30S 41°33' E 174°34'1 0.4
2020-Aug-02 13:30S 41°33' E 174°33'1 1.6
2020-Aug-02 13:00S 41°33' E 174°34'0 0.7
2020-Aug-02 12:30S 41°33' E 174°35'2 1.1
2020-Aug-02 10:30S 41°31' E 174°34'1 1.6
2020-Aug-02 10:00S 41°30' E 174°33'5 1.4
2020-Aug-02 06:30S 41°32' E 174°39'3 2.1
2020-Aug-02 05:00S 41°33' E 174°35'2 3.8
2020-Aug-02 04:30S 41°31' E 174°35'1 2.4
2020-Aug-02 04:00S 41°30' E 174°34'1 0.7
2020-Aug-02 03:00S 41°29' E 174°33'1 1.0
2020-Aug-02 02:00S 41°30' E 174°34'2115.0
2020-Aug-02 02:00S 41°30' E 174°36'3 2.8 1024.9 13.7 7.3
2020-Aug-02 01:00S 41°33' E 174°37'3208.3
2020-Aug-02 01:00S 41°36' E 174°36'0 0.0 1025.3 13.8 9.0
2020-Aug-02 00:00S 41°36' E 174°36'6 6.0 1026.4 13.110.2
2020-Aug-01 23:00S 41°30' E 174°36'2 3.6 1027.0 13.5 9.6
2020-Aug-01 22:30S 41°31' E 174°34'2 3.3
2020-Aug-01 22:00S 41°30' E 174°36'0 0.0 1027.2 13.2 9.5
2020-Aug-01 21:00S 41°30' E 174°36'0 0.0 1027.3 12.910.0
2020-Aug-01 20:00S 41°30' E 174°36'0 0.0 1026.9 12.610.3
2020-Aug-01 19:00S 41°30' E 174°36'0 0.0 1026.5 12.7 9.7
2020-Aug-01 18:00S 41°30' E 174°36'6 6.0 1026.2 12.6 9.8
2020-Aug-01 17:00S 41°36' E 174°36'3 3.5 350 / 101026.2 12.5 9.5
2020-Aug-01 16:00S 41°33' E 174°34'3211.8
2020-Aug-01 16:00S 41°36' E 174°36'6 6.0 350 / 121026.1 12.7 9.3
2020-Aug-01 15:00S 41°30' E 174°36'6 6.0 360 / 81026.8 12.5 8.1
2020-Aug-01 14:00S 41°30' E 174°28'192.9
2020-Aug-01 14:00S 41°30' E 174°30'0 0.0 360 / 131027.0 12.8 8.4
2020-Aug-01 13:00S 41°30' E 174°30'4 4.5 360 / 151026.9 13.0 7.0
2020-Aug-01 12:00S 41°30' E 174°36'2 4.2 1027.4 12.5 5.8
2020-Aug-01 11:30S 41°32' E 174°35'4 2.8
2020-Aug-01 10:00S 41°36' E 174°36'3 5.7 010 / 131027.3 12.8 8.3
2020-Aug-01 09:31S 41°38' E 174°39'816.3
2020-Aug-01 09:00S 41°30' E 174°42'6 6.0 020 / 121027.5 12.5 9.0
2020-Aug-01 08:00S 41°36' E 174°42'7 7.5 040 / 111027.4 12.4 8.0
2020-Aug-01 07:00S 41°42' E 174°48'4 4.5 030 / 151026.6 12.5 8.2
2020-Aug-01 06:00S 41°42' E 174°54'4 8.1 030 / 181026.3 12.3 7.5
2020-Aug-01 05:30S 41°38' E 174°55'2 4.4
2020-Aug-01 05:00S 41°36' E 174°54'1312.8 050 / 111026.2 12.5 6.5
2020-Aug-01 04:00S 41°24' E 174°48'8 8.5 1026.3 12.9 6.5
2020-Aug-01 03:00S 41°16' E 174°48'2144.8
2020-Aug-01 03:00S 41°18' E 174°48'2 4.6 1026.1 12.9 5.1
2020-Aug-01 02:30S 41°16' E 174°48'2 4.4
2020-Aug-01 02:00S 41°18' E 174°48'0 0.0 1026.5 13.5 4.2
2020-Aug-01 01:00S 41°18' E 174°48'2 4.3 1027.3 13.7 4.1
2020-Aug-01 00:30S 41°16' E 174°47'0 0.0
2020-Aug-01 00:00S 41°16' E 174°47'2333.3
2020-Aug-01 00:00S 41°18' E 174°48'0 0.0 1028.2 13.1 5.2
2020-Jul-31 23:00S 41°18' E 174°48'0 0.0 1028.7 12.6 6.1
2020-Jul-31 22:00S 41°18' E 174°48'2 4.3 1028.5 12.2 6.0
2020-Jul-31 21:30S 41°16' E 174°47'2 4.2
2020-Jul-31 21:00S 41°18' E 174°48'0 0.0 1028.5 11.2 6.3
2020-Jul-31 20:00S 41°18' E 174°48'0 0.0 1028.5 10.5 6.9
2020-Jul-31 19:00S 41°18' E 174°48'2 2.1 1028.1 10.1 6.9
2020-Jul-31 18:00S 41°16' E 174°47'2383.3
2020-Jul-31 18:00S 41°18' E 174°48'0 0.0 1027.4 10.8 6.2
2020-Jul-31 17:00S 41°18' E 174°48'0 0.0 1027.4 11.0 6.1
2020-Jul-31 16:00S 41°18' E 174°48'2 4.3 1027.5 11.3 5.8
2020-Jul-31 15:30S 41°16' E 174°47'2 4.2
2020-Jul-31 15:00S 41°18' E 174°48'0 0.0 1027.5 11.5 6.0
2020-Jul-31 14:00S 41°18' E 174°48'0 0.0 1027.5 11.1 5.9
2020-Jul-31 13:00S 41°18' E 174°48'0 0.0 1027.5 9.8 6.5
2020-Jul-31 12:00S 41°18' E 174°48'247.0 1027.5 10.3 6.4
2020-Jul-31 11:57S 41°16' E 174°47'2 2.2
2020-Jul-31 11:00S 41°18' E 174°48'2 2.1 1027.4 10.7 6.2
2020-Jul-31 10:00S 41°16' E 174°47'2479.2
2020-Jul-31 10:00S 41°18' E 174°48'0 0.0 1027.7 10.4 6.2
2020-Jul-31 09:00S 41°18' E 174°48'0 0.0 1027.3 11.5 6.2
2020-Jul-31 08:00S 41°18' E 174°48'0 0.0 1027.0 12.0 6.7
2020-Jul-31 07:00S 41°18' E 174°48'0 0.0 1026.8 12.2 6.3
2020-Jul-31 06:00S 41°18' E 174°48'214.5 1026.3 13.1 5.9
2020-Jul-31 05:51S 41°16' E 174°47'0 0.0
2020-Jul-31 05:00S 41°16' E 174°47'2589.8
2020-Jul-31 05:00S 41°18' E 174°48'2 2.1 1025.6 13.6 4.9
2020-Jul-31 04:00S 41°16' E 174°47'2589.8
2020-Jul-31 04:00S 41°18' E 174°48'0 0.0 1025.3 14.0 4.6
2020-Jul-31 03:00S 41°18' E 174°48'0 0.0 1025.6 14.4 4.1
2020-Jul-31 02:00S 41°18' E 174°48'2 2.1 1025.9 14.6 5.0
2020-Jul-31 01:00S 41°16' E 174°47'2697.0
2020-Jul-31 01:00S 41°18' E 174°48'2 4.3 1026.6 14.0 5.0
2020-Jul-31 00:30S 41°16' E 174°47'2 4.2
2020-Jul-31 00:00S 41°18' E 174°48'0 0.0 1026.9 14.7 5.1
2020-Jul-30 23:00S 41°18' E 174°48'2 4.3 1027.5 13.6 5.5
2020-Jul-30 22:30S 41°16' E 174°47'2 4.2
2020-Jul-30 22:00S 41°18' E 174°48'2 4.3 1027.0 13.1 5.3
2020-Jul-30 21:30S 41°16' E 174°47'2 4.2
2020-Jul-30 21:00S 41°18' E 174°48'2 4.3 1027.2 12.7 5.3
2020-Jul-30 20:30S 41°16' E 174°47'0 0.0
2020-Jul-30 19:30S 41°16' E 174°47'0 0.0
2020-Jul-30 13:30S 41°16' E 174°47'0 0.0
2020-Jul-30 10:30S 41°16' E 174°47'0 0.0
2020-Jul-30 09:00S 41°16' E 174°47'0 0.0
2020-Jul-30 08:24S 41°16' E 174°47'0 0.0
2020-Jul-30 05:57S 41°16' E 174°47'0 0.0
2020-Jul-30 03:51S 41°16' E 174°47'2 0.7
2020-Jul-30 01:00S 41°18' E 174°48'0 0.0 1029.3 13.5 7.4
2020-Jul-30 00:00S 41°18' E 174°48'0 0.0 1030.5 13.7 8.5
2020-Jul-29 23:00S 41°18' E 174°48'0 0.0 1031.7 12.6 8.3
2020-Jul-29 22:00S 41°18' E 174°48'0 0.0 1032.1 11.7 7.6
2020-Jul-29 21:00S 41°18' E 174°48'21916.7 1032.2 10.5 7.4
2020-Jul-29 20:59S 41°16' E 174°47'0 0.0
2020-Jul-29 20:29S 41°16' E 174°47'2 4.3
2020-Jul-29 20:00S 41°18' E 174°48'2 4.0 1032.1 9.8 7.1
2020-Jul-29 19:30S 41°16' E 174°48'5 9.0
2020-Jul-29 19:00S 41°18' E 174°54'8 7.5 020 / 141031.4 9.0 6.6
2020-Jul-29 18:00S 41°24' E 174°48'6 5.7 1030.6 10.9 8.1
2020-Jul-29 17:00S 41°29' E 174°51'2158.9
2020-Jul-29 17:00S 41°30' E 174°54'1 2.2 360 / 171030.8 11.4 7.7
2020-Jul-29 16:30S 41°31' E 174°55'5 9.8
2020-Jul-29 16:00S 41°36' E 174°54'2 5.1 020 / 141031.4 11.0 9.1
2020-Jul-29 15:30S 41°37' E 174°57'610.8
2020-Jul-29 15:00S 41°42' E 175°00'4 9.1 010 / 171031.8 11.6 9.0
2020-Jul-29 14:30S 41°43' E 174°54'713.1
2020-Jul-29 14:00S 41°48' E 175°00'4 4.5 360 / 181032.4 11.6 9.2
2020-Jul-29 13:00S 41°48' E 175°06'1110.8 350 / 171032.4 12.2 8.9
2020-Jul-29 12:00S 41°42' E 175°18'1110.8 040 / 71033.1 11.1 8.6
2020-Jul-29 11:00S 41°36' E 175°30'1110.8 020 / 141033.4 11.4 9.0
2020-Jul-29 10:00S 41°30' E 175°42'1110.8 030 / 131034.2 10.8 8.9
2020-Jul-29 09:00S 41°24' E 175°54'8 7.5 030 / 151035.0 11.2 9.4
2020-Jul-29 08:00S 41°18' E 176°00'1515.0 010 / 121035.5 11.7 9.1
2020-Jul-29 07:00S 41°06' E 176°12'8 7.5 010 / 61035.8 11.6 8.7
2020-Jul-29 06:00S 41°00' E 176°18'1515.0 1035.5 11.8 8.8
2020-Jul-29 05:00S 40°48' E 176°30'8 7.5 100 / 71035.3 12.0 9.2
2020-Jul-29 04:00S 40°42' E 176°36'1110.9 110 / 91035.1 12.5 9.9
2020-Jul-29 03:00S 40°36' E 176°48'1312.8 110 / 91034.9 13.2 9.5
2020-Jul-29 02:00S 40°24' E 176°54'1110.9 1035.2 13.3 8.8
2020-Jul-29 01:00S 40°18' E 177°06'1312.8 1035.5 14.1 8.3
2020-Jul-29 00:00S 40°06' E 177°12'8 7.6 220 / 71036.7 13.9 8.5
2020-Jul-28 23:00S 40°00' E 177°18'1515.1 1037.6 13.6 9.5
2020-Jul-28 22:00S 39°48' E 177°30'8 7.6 300 / 71037.7 13.1 8.3
2020-Jul-28 21:00S 39°42' E 177°36'1515.1 290 / 71037.3 12.8 8.9
2020-Jul-28 20:00S 39°30' E 177°48'8 7.6 300 / 121037.3 12.4 7.8
2020-Jul-28 19:00S 39°24' E 177°54'1515.2 310 / 101037.0 12.5 6.1
2020-Jul-28 18:00S 39°12' E 178°06'8 7.6 1036.8 12.5 7.4
2020-Jul-28 17:00S 39°06' E 178°12'1312.9 1036.9 12.4 7.2
2020-Jul-28 16:00S 38°54' E 178°18'1312.9 300 / 111037.3 11.7 7.3
2020-Jul-28 15:00S 38°42' E 178°24'1111.1 300 / 81037.5 12.5 5.4
2020-Jul-28 14:00S 38°36' E 178°36'6 6.0 320 / 91037.8 12.9 6.7
2020-Jul-28 13:00S 38°30' E 178°36'1212.0 1037.8 12.6 7.6
2020-Jul-28 12:00S 38°18' E 178°36'1212.0 270 / 71037.8 12.8 7.8
2020-Jul-28 11:00S 38°06' E 178°36'1212.0 1038.2 13.3 5.9
2020-Jul-28 10:00S 37°54' E 178°36'1212.0 1037.3 13.2 5.3
2020-Jul-28 09:00S 37°42' E 178°36'8 7.7 090 / 91037.2 13.3 5.3
2020-Jul-28 08:00S 37°36' E 178°30'   100 / 111036.5 13.4 6.2

Dump ship's entire track history